createdAt,value
2022-08-20T00:00:31.045Z,1.50
2022-08-20T00:03:00.804Z,1.25
2022-08-20T00:05:33.864Z,1.58
2022-08-20T00:08:00.529Z,1.60
2022-08-20T00:10:28.390Z,1.48
2022-08-20T00:12:55.432Z,1.30
2022-08-20T00:15:24.960Z,1.58
2022-08-20T00:17:52.688Z,1.20
2022-08-20T00:20:21.805Z,1.50
2022-08-20T00:22:48.497Z,1.38
2022-08-20T00:25:19.906Z,1.40
2022-08-20T00:27:46.461Z,1.40
2022-08-20T00:30:13.730Z,1.27
2022-08-20T00:32:55.148Z,1.25
2022-08-20T00:35:23.681Z,1.63
2022-08-20T00:37:50.291Z,1.40
2022-08-20T00:40:22.014Z,1.50
2022-08-20T00:42:53.064Z,1.25
2022-08-20T00:45:20.685Z,1.20
2022-08-20T00:47:54.932Z,1.50
2022-08-20T00:50:26.875Z,1.33
2022-08-20T00:52:54.000Z,1.20
2022-08-20T00:55:24.955Z,1.40
2022-08-20T00:58:01.490Z,1.53
2022-08-20T01:00:34.766Z,1.40
2022-08-20T01:03:01.488Z,1.48
2022-08-20T01:05:29.585Z,1.27
2022-08-20T01:07:57.142Z,1.42
2022-08-20T01:10:28.114Z,1.15
2022-08-20T01:12:59.497Z,1.40
2022-08-20T01:15:30.978Z,1.40
2022-08-20T01:17:58.711Z,1.40
2022-08-20T01:20:28.932Z,1.23
2022-08-20T01:23:30.248Z,1.60
2022-08-20T01:26:03.466Z,1.40
2022-08-20T01:28:48.143Z,1.30
2022-08-20T01:31:22.090Z,1.40
2022-08-20T01:33:50.064Z,1.20
2022-08-20T01:36:18.647Z,1.20
2022-08-20T01:38:53.140Z,1.30
2022-08-20T01:41:41.259Z,1.20
2022-08-20T01:44:08.649Z,1.30
2022-08-20T01:46:44.968Z,1.63
2022-08-20T01:49:20.295Z,1.20
2022-08-20T01:51:52.126Z,1.30
2022-08-20T01:54:18.783Z,1.20
2022-08-20T01:57:05.656Z,1.17
2022-08-20T01:59:32.285Z,1.20
2022-08-20T02:01:59.532Z,1.60
2022-08-20T02:04:27.077Z,1.27
2022-08-20T02:06:58.132Z,1.50
2022-08-20T02:09:27.078Z,1.55
2022-08-20T02:11:53.650Z,1.30
2022-08-20T02:14:20.337Z,1.50
2022-08-20T02:16:54.781Z,1.48
2022-08-20T02:19:32.146Z,1.25
2022-08-20T02:22:00.464Z,1.70
2022-08-20T02:24:27.028Z,1.40
2022-08-20T02:26:54.827Z,1.48
2022-08-20T02:29:21.745Z,1.40
2022-08-20T02:32:24.847Z,1.50
2022-08-20T02:34:35.284Z,1.67
2022-08-20T02:37:02.627Z,1.35
2022-08-20T02:39:29.425Z,1.30
2022-08-20T02:41:56.054Z,1.33
2022-08-20T02:44:22.634Z,1.23
2022-08-20T02:46:50.159Z,1.40
2022-08-20T02:49:18.407Z,1.90
2022-08-20T02:51:45.634Z,1.15
2022-08-20T02:54:12.836Z,1.60
2022-08-20T02:56:39.780Z,1.30
2022-08-20T02:59:06.789Z,1.40
2022-08-20T03:01:33.861Z,1.27
2022-08-20T03:04:00.565Z,1.60
2022-08-20T03:06:27.806Z,1.35
2022-08-20T03:08:54.619Z,1.40
2022-08-20T03:11:21.298Z,1.30
2022-08-20T03:13:48.081Z,1.35
2022-08-20T03:16:14.903Z,1.30
2022-08-20T03:18:47.432Z,1.40
2022-08-20T03:21:18.579Z,1.25
2022-08-20T03:23:45.171Z,1.30
2022-08-20T03:26:13.104Z,1.50
2022-08-20T03:28:41.275Z,1.20
2022-08-20T03:31:08.083Z,1.17
2022-08-20T03:33:35.397Z,1.05
2022-08-20T03:36:02.035Z,1.42
2022-08-20T03:38:33.260Z,1.38
2022-08-20T03:41:01.577Z,1.65
2022-08-20T03:43:28.496Z,1.60
2022-08-20T03:45:55.273Z,1.60
2022-08-20T03:48:22.049Z,1.30
2022-08-20T03:50:50.754Z,1.65
2022-08-20T03:53:17.852Z,1.02
2022-08-20T03:55:53.764Z,1.30
2022-08-20T03:58:22.133Z,1.08
2022-08-20T04:01:02.319Z,0.98
2022-08-20T04:03:29.007Z,1.50
2022-08-20T04:05:55.951Z,1.23
2022-08-20T04:08:29.372Z,1.13
2022-08-20T04:11:00.269Z,1.20
2022-08-20T04:13:28.024Z,1.05
2022-08-20T04:15:56.835Z,0.90
2022-08-20T04:18:25.829Z,1.30
2022-08-20T04:20:53.615Z,1.30
2022-08-20T04:23:21.273Z,1.30
2022-08-20T04:25:48.063Z,1.00
2022-08-20T04:28:19.387Z,0.90
2022-08-20T04:30:51.664Z,1.27
2022-08-20T04:33:34.035Z,1.13
2022-08-20T04:38:48.002Z,0.77
2022-08-20T04:41:22.550Z,0.85
2022-08-20T04:43:54.362Z,1.02
2022-08-20T04:46:23.571Z,1.10
2022-08-20T04:48:50.555Z,1.17
2022-08-20T04:51:18.294Z,1.00
2022-08-20T04:53:51.742Z,0.85
2022-08-20T04:56:23.387Z,1.10
2022-08-20T04:58:51.229Z,1.20
2022-08-20T05:01:18.258Z,1.20
2022-08-20T05:03:47.585Z,1.05
2022-08-20T05:06:16.092Z,1.17
2022-08-20T05:08:43.236Z,0.93
2022-08-20T05:11:33.971Z,1.10
2022-08-20T05:13:57.219Z,1.00
2022-08-20T05:16:24.650Z,1.00
2022-08-20T05:18:52.829Z,1.00
2022-08-20T05:21:20.819Z,0.98
2022-08-20T05:23:47.492Z,1.00
2022-08-20T05:26:15.968Z,1.30
2022-08-20T05:28:57.322Z,1.13
2022-08-20T05:31:31.436Z,1.30
2022-08-20T05:33:59.539Z,1.10
2022-08-20T05:36:26.303Z,1.00
2022-08-20T05:38:53.875Z,1.00
2022-08-20T05:41:28.870Z,0.90
2022-08-20T05:43:57.960Z,1.00
2022-08-20T05:46:24.612Z,0.70
2022-08-20T05:48:51.174Z,0.93
2022-08-20T05:51:17.766Z,1.13
2022-08-20T05:53:44.326Z,1.00
2022-08-20T05:56:13.616Z,0.88
2022-08-20T05:58:40.349Z,1.10
2022-08-20T06:01:06.959Z,0.82
2022-08-20T06:03:51.863Z,0.85
2022-08-20T06:06:39.104Z,1.00
2022-08-20T06:09:05.045Z,2.35
2022-08-20T06:11:36.493Z,2.42
2022-08-20T06:14:05.530Z,3.30
2022-08-20T06:16:32.356Z,1.98
2022-08-20T06:18:58.935Z,1.67
2022-08-20T06:21:26.262Z,3.00
2022-08-20T06:23:58.036Z,3.22
2022-08-20T06:26:29.942Z,3.10
2022-08-20T06:28:57.160Z,2.67
2022-08-20T06:31:23.761Z,2.45
2022-08-20T06:33:50.328Z,2.40
2022-08-20T06:36:18.737Z,2.10
2022-08-20T06:38:46.371Z,2.15
2022-08-20T06:41:13.260Z,2.25
2022-08-20T06:43:39.881Z,2.13
2022-08-20T06:46:07.011Z,2.10
2022-08-20T06:48:34.120Z,2.35
2022-08-20T06:51:01.464Z,2.60
2022-08-20T06:53:29.084Z,1.90
2022-08-20T06:55:58.866Z,2.00
2022-08-20T06:58:37.895Z,2.10
2022-08-20T07:01:10.756Z,1.92
2022-08-20T07:03:39.262Z,2.15
2022-08-20T07:06:08.929Z,2.10
2022-08-20T07:08:35.956Z,1.80
2022-08-20T07:11:02.636Z,1.98
2022-08-20T07:13:29.244Z,1.90
2022-08-20T07:15:56.362Z,1.58
2022-08-20T07:18:28.044Z,1.95
2022-08-20T07:20:56.786Z,1.55
2022-08-20T07:23:24.067Z,2.00
2022-08-20T07:25:50.681Z,1.92
2022-08-20T07:28:20.244Z,1.63
2022-08-20T07:31:13.630Z,1.98
2022-08-20T07:33:41.752Z,1.63
2022-08-20T07:36:09.666Z,1.98
2022-08-20T07:38:37.229Z,1.67
2022-08-20T07:41:05.199Z,1.70
2022-08-20T07:43:32.336Z,1.73
2022-08-20T07:46:07.491Z,1.75
2022-08-20T07:48:36.735Z,1.30
2022-08-20T07:51:04.413Z,1.45
2022-08-20T07:53:35.862Z,1.50
2022-08-20T07:56:05.963Z,1.48
2022-08-20T07:58:33.777Z,1.50
2022-08-20T08:01:00.701Z,1.58
2022-08-20T08:03:39.494Z,1.27
2022-08-20T08:06:15.603Z,1.33
2022-08-20T08:08:47.100Z,1.50
2022-08-20T08:11:13.862Z,1.45
2022-08-20T08:13:40.927Z,1.20
2022-08-20T08:16:08.497Z,1.30
2022-08-20T08:18:48.859Z,1.55
2022-08-20T08:21:16.493Z,1.25
2022-08-20T08:23:44.525Z,1.00
2022-08-20T08:26:17.894Z,1.38
2022-08-20T08:28:45.805Z,1.20
2022-08-20T08:31:12.703Z,1.52
2022-08-20T08:33:40.919Z,0.95
2022-08-20T08:36:11.821Z,1.10
2022-08-20T08:38:42.984Z,1.13
2022-08-20T08:41:32.450Z,1.10
2022-08-20T08:44:21.333Z,1.15
2022-08-20T08:46:49.544Z,1.10
2022-08-20T08:49:25.351Z,0.93
2022-08-20T08:52:08.967Z,1.40
2022-08-20T08:54:36.055Z,1.02
2022-08-20T08:57:02.920Z,1.10
2022-08-20T08:59:47.347Z,1.08
2022-08-20T09:02:22.674Z,1.00
2022-08-20T09:04:51.558Z,1.25
2022-08-20T09:07:18.248Z,1.13
2022-08-20T09:09:46.796Z,1.23
2022-08-20T09:12:19.372Z,1.35
2022-08-20T09:14:48.603Z,1.00
2022-08-20T09:17:15.787Z,1.00
2022-08-20T09:19:42.384Z,1.13
2022-08-20T09:22:10.736Z,1.10
2022-08-20T09:24:38.263Z,0.90
2022-08-20T09:27:05.060Z,0.88
2022-08-20T09:29:32.957Z,0.90
2022-08-20T09:32:18.909Z,1.00
2022-08-20T09:34:51.995Z,0.90
2022-08-20T09:37:19.235Z,0.82
2022-08-20T09:39:45.832Z,0.73
2022-08-20T09:42:18.268Z,1.27
2022-08-20T09:44:45.500Z,1.17
2022-08-20T09:47:12.220Z,0.93
2022-08-20T09:49:39.369Z,1.10
2022-08-20T09:52:09.576Z,0.95
2022-08-20T09:54:37.706Z,1.10
2022-08-20T09:57:06.495Z,0.90
2022-08-20T09:59:33.813Z,1.08
2022-08-20T10:02:00.464Z,1.00
2022-08-20T10:04:27.149Z,1.40
2022-08-20T10:06:53.720Z,1.13
2022-08-20T10:09:20.338Z,0.63
2022-08-20T10:11:46.924Z,0.90
2022-08-20T10:14:13.765Z,1.20
2022-08-20T10:16:40.375Z,1.23
2022-08-20T10:19:06.954Z,0.90
2022-08-20T10:21:38.492Z,0.85
2022-08-20T10:24:05.543Z,0.88
2022-08-20T10:26:32.106Z,0.90
2022-08-20T10:28:58.689Z,1.17
2022-08-20T10:31:25.253Z,0.77
2022-08-20T10:33:51.872Z,1.02
2022-08-20T10:36:18.451Z,1.08
2022-08-20T10:38:45.523Z,0.90
2022-08-20T10:41:12.192Z,0.90
2022-08-20T10:43:38.800Z,0.90
2022-08-20T10:46:05.943Z,0.88
2022-08-20T10:48:32.989Z,1.00
2022-08-20T10:50:59.646Z,0.95
2022-08-20T10:53:26.312Z,0.90
2022-08-20T10:55:54.262Z,0.95
2022-08-20T10:58:23.941Z,0.90
2022-08-20T11:00:50.988Z,0.82
2022-08-20T11:03:17.734Z,1.05
2022-08-20T11:05:44.791Z,1.00
2022-08-20T11:08:11.478Z,1.02
2022-08-20T11:10:38.945Z,1.13
2022-08-20T11:13:07.060Z,0.85
2022-08-20T11:15:36.076Z,1.00
2022-08-20T11:18:03.125Z,1.23
2022-08-20T11:20:31.923Z,1.00
2022-08-20T11:22:59.036Z,0.80
2022-08-20T11:25:26.137Z,1.10
2022-08-20T11:27:53.629Z,1.00
2022-08-20T11:30:26.902Z,0.98
2022-08-20T11:32:53.665Z,1.02
2022-08-20T11:35:48.154Z,0.90
2022-08-20T11:38:10.200Z,0.90
2022-08-20T11:40:36.771Z,0.82
2022-08-20T11:43:18.797Z,1.10
2022-08-20T11:45:48.956Z,1.00
2022-08-20T11:48:16.963Z,1.20
2022-08-20T11:50:43.572Z,1.13
2022-08-20T11:53:10.165Z,1.08
2022-08-20T11:55:37.272Z,1.20
2022-08-20T11:58:05.282Z,1.23
2022-08-20T12:00:33.957Z,0.85
2022-08-20T12:03:02.017Z,1.17
2022-08-20T12:05:29.999Z,1.00
2022-08-20T12:07:57.648Z,1.00
2022-08-20T12:10:26.356Z,0.93
2022-08-20T12:12:53.008Z,0.98
2022-08-20T12:15:20.258Z,1.05
2022-08-20T12:17:46.891Z,0.95
2022-08-20T12:20:14.700Z,0.90
2022-08-20T12:22:41.582Z,1.05
2022-08-20T12:25:08.791Z,1.10
2022-08-20T12:27:36.390Z,1.05
2022-08-20T12:30:07.391Z,0.95
2022-08-20T12:32:35.461Z,1.30
2022-08-20T12:35:02.193Z,1.65
2022-08-20T12:37:30.670Z,0.93
2022-08-20T12:39:59.544Z,0.90
2022-08-20T12:42:27.398Z,1.02
2022-08-20T12:44:54.029Z,1.00
2022-08-20T12:47:23.792Z,0.90
2022-08-20T12:49:53.561Z,1.02
2022-08-20T12:52:21.220Z,0.98
2022-08-20T12:54:48.235Z,1.00
2022-08-20T12:57:17.255Z,1.00
2022-08-20T12:59:43.876Z,1.00
2022-08-20T13:02:14.164Z,0.90
2022-08-20T13:04:42.409Z,1.23
2022-08-20T13:07:11.558Z,1.10
2022-08-20T13:09:38.648Z,1.30
2022-08-20T13:12:07.684Z,1.20
2022-08-20T13:14:34.840Z,0.90
2022-08-20T13:17:01.784Z,1.00
2022-08-20T13:19:30.114Z,0.98
2022-08-20T13:21:56.759Z,1.00
2022-08-20T13:24:23.407Z,1.15
2022-08-20T13:26:50.343Z,1.10
2022-08-20T13:29:17.906Z,1.30
2022-08-20T13:31:44.539Z,1.10
2022-08-20T13:34:11.436Z,1.13
2022-08-20T13:36:38.105Z,1.17
2022-08-20T13:39:06.393Z,1.15
2022-08-20T13:41:33.220Z,1.30
2022-08-20T13:43:59.783Z,1.15
2022-08-20T13:46:26.339Z,1.38
2022-08-20T13:48:52.927Z,1.33
2022-08-20T13:51:19.538Z,1.17
2022-08-20T13:53:48.485Z,1.30
2022-08-20T13:56:15.067Z,1.10
2022-08-20T13:58:41.745Z,1.10
2022-08-20T14:01:08.385Z,1.02
2022-08-20T14:03:35.201Z,1.05
2022-08-20T14:06:03.133Z,1.30
2022-08-20T14:08:29.866Z,1.23
2022-08-20T14:10:56.662Z,1.45
2022-08-20T14:13:25.412Z,1.13
2022-08-20T14:15:52.457Z,1.40
2022-08-20T14:18:19.890Z,1.10
2022-08-20T14:20:47.580Z,1.17
2022-08-20T14:23:15.021Z,1.20
2022-08-20T14:25:45.513Z,1.40
2022-08-20T14:28:23.294Z,1.00
2022-08-20T14:30:53.369Z,1.55
2022-08-20T14:33:20.586Z,1.15
2022-08-20T14:35:47.159Z,1.15
2022-08-20T14:38:13.746Z,1.45
2022-08-20T14:40:40.333Z,1.40
2022-08-20T14:43:06.952Z,1.50
2022-08-20T14:45:33.581Z,1.27
2022-08-20T14:48:00.214Z,1.17
2022-08-20T14:50:31.129Z,1.00
2022-08-20T14:52:58.270Z,1.00
2022-08-20T14:55:28.555Z,1.13
2022-08-20T14:57:55.848Z,1.10
2022-08-20T15:00:26.263Z,1.35
2022-08-20T15:02:53.024Z,1.02
2022-08-20T15:05:19.627Z,0.90
2022-08-20T15:07:48.498Z,1.10
2022-08-20T15:10:21.249Z,0.90
2022-08-20T15:12:47.868Z,1.08
2022-08-20T15:15:16.286Z,1.20
2022-08-20T15:17:48.317Z,1.05
2022-08-20T15:20:19.910Z,1.20
2022-08-20T15:22:47.126Z,0.90
2022-08-20T15:25:15.517Z,1.30
2022-08-20T15:27:42.314Z,1.00
2022-08-20T15:30:12.499Z,1.10
2022-08-20T15:32:39.152Z,0.90
2022-08-20T15:35:08.069Z,1.20
2022-08-20T15:37:34.634Z,1.00
2022-08-20T15:40:06.592Z,1.10
2022-08-20T15:42:33.194Z,1.40
2022-08-20T15:44:59.768Z,0.85
2022-08-20T15:47:28.976Z,1.00
2022-08-20T15:50:13.874Z,1.55
2022-08-20T15:52:43.822Z,1.00
2022-08-20T15:55:12.816Z,1.13
2022-08-20T15:57:55.972Z,1.10
2022-08-20T16:00:41.882Z,1.10
2022-08-20T16:03:27.779Z,1.00
2022-08-20T16:06:01.496Z,1.20
2022-08-20T16:08:46.870Z,1.38
2022-08-20T16:11:28.983Z,1.30
2022-08-20T16:14:09.946Z,1.00
2022-08-20T16:16:41.368Z,1.00
2022-08-20T16:19:12.789Z,1.10
2022-08-20T16:21:41.537Z,0.90
2022-08-20T16:24:08.357Z,1.05
2022-08-20T16:26:45.303Z,0.80
2022-08-20T16:29:15.197Z,0.98
2022-08-20T16:31:59.688Z,1.35
2022-08-20T16:34:34.943Z,1.02
2022-08-20T16:37:30.974Z,1.10
2022-08-20T16:40:26.113Z,0.93
2022-08-20T16:42:54.821Z,0.90
2022-08-20T16:45:30.155Z,1.02
2022-08-20T16:48:02.007Z,1.00
2022-08-20T16:50:37.184Z,0.80
2022-08-20T16:53:03.772Z,1.05
2022-08-20T16:55:30.567Z,1.15
2022-08-20T16:57:57.125Z,1.00
2022-08-20T17:00:39.024Z,1.20
2022-08-20T17:03:31.608Z,1.05
2022-08-20T17:06:19.101Z,1.00
2022-08-20T17:08:50.564Z,0.98
2022-08-20T17:11:29.158Z,1.02
2022-08-20T17:14:06.847Z,1.00
2022-08-20T17:16:40.768Z,0.90
2022-08-20T17:19:20.408Z,1.23
2022-08-20T17:21:50.336Z,1.30
2022-08-20T17:24:25.959Z,1.10
2022-08-20T17:27:10.231Z,0.90
2022-08-20T17:29:52.648Z,0.80
2022-08-20T17:32:24.017Z,1.10
2022-08-20T17:34:53.672Z,0.93
2022-08-20T17:37:22.545Z,1.20
2022-08-20T17:39:52.380Z,1.33
2022-08-20T17:42:25.627Z,1.38
2022-08-20T17:45:06.081Z,1.10
2022-08-20T17:47:35.767Z,1.23
2022-08-20T17:50:14.141Z,1.20
2022-08-20T17:52:50.762Z,0.90
2022-08-20T17:55:18.023Z,1.38
2022-08-20T17:57:46.650Z,1.13
2022-08-20T18:00:17.409Z,0.93
2022-08-20T18:02:44.472Z,1.33
2022-08-20T18:05:20.004Z,1.40
2022-08-20T18:07:59.428Z,0.85
2022-08-20T18:10:27.207Z,1.20
2022-08-20T18:13:15.807Z,1.00
2022-08-20T18:15:56.806Z,0.90
2022-08-20T18:18:23.347Z,1.00
2022-08-20T18:21:11.354Z,0.98
2022-08-20T18:24:02.834Z,1.38
2022-08-20T18:26:33.300Z,1.20
2022-08-20T18:29:14.881Z,1.00
2022-08-20T18:31:54.919Z,0.90
2022-08-20T18:34:38.910Z,1.20
2022-08-20T18:37:14.350Z,1.10
2022-08-20T18:39:44.172Z,1.20
2022-08-20T18:42:32.808Z,1.02
2022-08-20T18:45:00.127Z,0.95
2022-08-20T18:47:45.819Z,1.10
2022-08-20T18:50:24.440Z,1.10
2022-08-20T18:53:03.996Z,1.10
2022-08-20T18:55:42.122Z,1.25
2022-08-20T18:58:11.973Z,1.10
2022-08-20T19:00:42.272Z,1.10
2022-08-20T19:03:08.764Z,1.25
2022-08-20T19:06:00.073Z,1.20
2022-08-20T19:08:39.358Z,1.02
2022-08-20T19:11:32.900Z,1.30
2022-08-20T19:14:11.547Z,1.20
2022-08-20T19:16:45.167Z,1.42
2022-08-20T19:19:23.084Z,1.50
2022-08-20T19:21:50.020Z,1.45
2022-08-20T19:24:23.214Z,1.42
2022-08-20T19:29:23.831Z,1.40
2022-08-20T19:31:57.373Z,1.13
2022-08-20T19:34:25.771Z,1.27
2022-08-20T19:37:27.614Z,1.27
2022-08-20T19:39:53.045Z,1.23
2022-08-20T19:42:28.423Z,1.73
2022-08-20T19:45:08.117Z,1.10
2022-08-20T19:47:34.643Z,1.52
2022-08-20T19:50:29.995Z,1.63
2022-08-20T19:53:08.479Z,1.45
2022-08-20T19:55:37.251Z,1.30
2022-08-20T19:58:26.631Z,1.23
2022-08-20T20:00:55.186Z,1.10
2022-08-20T20:03:32.144Z,1.38
2022-08-20T20:06:00.564Z,1.20
2022-08-20T20:08:30.456Z,1.02
2022-08-20T20:11:00.138Z,1.60
2022-08-20T20:13:29.668Z,1.20
2022-08-20T20:16:02.677Z,1.10
2022-08-20T20:18:32.255Z,1.00
2022-08-20T20:21:11.938Z,1.10
2022-08-20T20:23:46.889Z,1.38
2022-08-20T20:26:17.184Z,1.20
2022-08-20T20:28:46.882Z,1.20
2022-08-20T20:31:21.691Z,1.38
2022-08-20T20:33:53.487Z,1.48
2022-08-20T20:36:38.396Z,1.73
2022-08-20T20:39:12.433Z,1.85
2022-08-20T20:41:51.332Z,1.95
2022-08-20T20:44:22.117Z,1.70
2022-08-20T20:46:50.951Z,1.95
2022-08-20T20:49:30.876Z,1.65
2022-08-20T20:52:06.406Z,1.50
2022-08-20T20:54:44.849Z,1.70
2022-08-20T20:57:37.736Z,1.65
2022-08-20T21:00:15.023Z,1.67
2022-08-20T21:02:41.656Z,1.35
2022-08-20T21:05:08.810Z,1.40
2022-08-20T21:07:50.694Z,1.60
2022-08-20T21:10:19.062Z,1.48
2022-08-20T21:12:50.457Z,1.58
2022-08-20T21:15:20.107Z,1.85
2022-08-20T21:17:46.676Z,1.70
2022-08-20T21:20:13.347Z,1.42
2022-08-20T21:22:39.987Z,1.60
2022-08-20T21:25:06.924Z,1.50
2022-08-20T21:27:34.400Z,1.42
2022-08-20T21:30:01.823Z,1.50
2022-08-20T21:32:28.374Z,1.13
2022-08-20T21:34:55.236Z,1.80
2022-08-20T21:37:21.820Z,1.50
2022-08-20T21:39:48.455Z,1.48
2022-08-20T21:42:21.639Z,1.70
2022-08-20T21:44:56.371Z,1.48
2022-08-20T21:47:22.944Z,1.33
2022-08-20T21:49:49.508Z,1.30
2022-08-20T21:52:16.077Z,1.75
2022-08-20T21:54:42.713Z,1.77
2022-08-20T21:57:14.767Z,1.60
2022-08-20T21:59:41.769Z,1.27
2022-08-20T22:02:08.432Z,1.67
2022-08-20T22:04:35.766Z,1.33
2022-08-20T22:07:03.729Z,1.88
2022-08-20T22:09:31.534Z,1.48
2022-08-20T22:12:02.063Z,1.35
2022-08-20T22:14:29.863Z,1.48
2022-08-20T22:16:56.789Z,1.55
2022-08-20T22:19:23.522Z,1.42
2022-08-20T22:21:51.481Z,1.40
2022-08-20T22:24:18.105Z,1.45
2022-08-20T22:26:44.702Z,1.33
2022-08-20T22:29:12.185Z,1.40
2022-08-20T22:31:41.128Z,1.48
2022-08-20T22:34:09.411Z,1.30
2022-08-20T22:36:35.999Z,1.50
2022-08-20T22:39:02.563Z,1.30
2022-08-20T22:41:29.132Z,1.42
2022-08-20T22:43:57.356Z,1.23
2022-08-20T22:46:26.883Z,1.40
2022-08-20T22:48:54.011Z,1.10
2022-08-20T22:51:23.531Z,1.23
2022-08-20T22:53:50.187Z,1.25
2022-08-20T22:56:19.661Z,1.35
2022-08-20T22:58:46.556Z,1.60
2022-08-20T23:01:17.447Z,1.60
2022-08-20T23:03:44.120Z,1.30
2022-08-20T23:06:11.116Z,1.42
2022-08-20T23:08:38.209Z,1.20
2022-08-20T23:11:04.961Z,1.05
2022-08-20T23:13:31.537Z,1.42
2022-08-20T23:15:58.307Z,1.38
2022-08-20T23:18:25.166Z,1.23
2022-08-20T23:20:56.214Z,1.15
2022-08-20T23:23:24.220Z,1.20
2022-08-20T23:25:51.363Z,1.30
2022-08-20T23:28:23.329Z,1.13
2022-08-20T23:30:50.334Z,1.25
2022-08-20T23:33:17.716Z,1.30
2022-08-20T23:35:44.954Z,1.38
2022-08-20T23:38:11.755Z,1.40
2022-08-20T23:40:38.791Z,1.33
2022-08-20T23:43:06.086Z,1.10
2022-08-20T23:45:33.148Z,1.20
2022-08-20T23:47:59.826Z,1.10
2022-08-20T23:50:29.002Z,1.23
2022-08-20T23:52:56.009Z,1.20
2022-08-20T23:55:23.542Z,1.13
2022-08-20T23:57:51.249Z,1.00
